-13.99C
небольшой снегопад
небольшой снегопад
Дата и времяТемператураДавление, мм рт.ст.Влажность, %Осадки
МинимумМаксимум
04.12.2022 14:00-18.31C-15.43C77486облачно с прояснениями
04.12.2022 17:00-21.97C-19.31C77593облачно с прояснениями
04.12.2022 20:00-23.71C-23.71C777100пасмурно
04.12.2022 23:00-24.6C-24.6C778100пасмурно
05.12.2022 02:00-24.93C-24.93C779100пасмурно
05.12.2022 05:00-19.98C-19.98C77999пасмурно
05.12.2022 08:00-18.8C-18.8C77897пасмурно
05.12.2022 11:00-17.73C-17.73C77997пасмурно
05.12.2022 14:00-15.97C-15.97C77896пасмурно
05.12.2022 17:00-15.18C-15.18C77796пасмурно
05.12.2022 20:00-15.08C-15.08C77797пасмурно
05.12.2022 23:00-13.88C-13.88C77796небольшой снег
06.12.2022 02:00-13.01C-13.01C77696небольшой снег
06.12.2022 05:00-12.22C-12.22C77696небольшой снег
06.12.2022 08:00-12.21C-12.21C77596небольшой снег
06.12.2022 11:00-12.32C-12.32C77695небольшой снег
06.12.2022 14:00-12.95C-12.95C77696пасмурно
06.12.2022 17:00-13.61C-13.61C77696небольшой снег
06.12.2022 20:00-14.24C-14.24C77696пасмурно
06.12.2022 23:00-16.1C-16.1C77597пасмурно
07.12.2022 02:00-20.2C-20.2C77599пасмурно
07.12.2022 05:00-20.56C-20.56C77499облачно с прояснениями
07.12.2022 08:00-18.95C-18.95C77297пасмурно
07.12.2022 11:00-17.17C-17.17C77194пасмурно
07.12.2022 14:00-16.24C-16.24C76993пасмурно
07.12.2022 17:00-15.24C-15.24C76793пасмурно
07.12.2022 20:00-14.13C-14.13C76592пасмурно
07.12.2022 23:00-13.32C-13.32C76291пасмурно
08.12.2022 02:00-13.2C-13.2C76189пасмурно
08.12.2022 05:00-12.84C-12.84C76088пасмурно
08.12.2022 08:00-12.85C-12.85C75994небольшой снег
08.12.2022 11:00-12.7C-12.7C75993небольшой снег
08.12.2022 14:00-12.74C-12.74C76094пасмурно
08.12.2022 17:00-13.72C-13.72C76095пасмурно
08.12.2022 20:00-12.71C-12.71C76094небольшой снег
08.12.2022 23:00-13.05C-13.05C76094пасмурно
09.12.2022 02:00-11.46C-11.46C76193небольшой снег
09.12.2022 05:00-10.72C-10.72C76293небольшой снег
09.12.2022 08:00-11.53C-11.53C76394небольшой снег
09.12.2022 11:00-13.46C-13.46C76597пасмурно
Дата и время наблюдения: 04.12.2022 12:16:10